Time;durP1;ratioP1;P1;durP2;ratioP2;P2;SDS_P1;SDS_P2;PMS_P1;PMS_P2;Temp;Humidity;BMP_temperature;BMP_pressure;BME280_temperature;BME280_humidity;BME280_pressure;Samples;Min_cycle;Max_cycle;Signal;HPM_P1;HPM_P2
2022/09/19 00:01:18;;;;;;;49.83;35.60;;;26.00;99.90;;;;;;5054281;28;20096;-65
2022/09/19 00:03:46;;;;;;;49.15;36.25;;;26.00;99.90;;;;;;5054048;28;20044;-64
2022/09/19 00:06:15;;;;;;;46.80;35.35;;;26.00;99.90;;;;;;5054168;28;20092;-69
2022/09/19 00:08:44;;;;;;;49.80;33.30;;;26.00;99.90;;;;;;5054080;28;20024;-66
2022/09/19 00:11:12;;;;;;;46.78;33.50;;;26.00;99.90;;;;;;5054017;28;20070;-66
2022/09/19 00:13:45;;;;;;;49.58;34.13;;;26.00;99.90;;;;;;5053940;28;20025;-65
2022/09/19 00:16:13;;;;;;;53.20;37.03;;;26.10;99.90;;;;;;5053832;28;20029;-66
2022/09/19 00:18:39;;;;;;;47.72;34.00;;;26.10;99.90;;;;;;5053872;28;20485;-65
2022/09/19 00:21:06;;;;;;;44.97;31.25;;;26.10;99.90;;;;;;5053937;28;20039;-66
2022/09/19 00:26:20;;;;;;;34.85;27.25;;;26.00;99.90;;;;;;5003976;28;20132;-66
2022/09/19 00:28:47;;;;;;;35.17;29.58;;;26.00;99.90;;;;;;5053548;28;20025;-66
2022/09/19 00:31:17;;;;;;;34.70;27.88;;;25.90;99.90;;;;;;5053497;28;20021;-66
2022/09/19 00:33:44;;;;;;;31.27;26.25;;;25.90;99.90;;;;;;5053606;28;20484;-67
2022/09/19 00:36:11;;;;;;;33.72;27.00;;;25.90;99.90;;;;;;5053462;28;20079;-65
2022/09/19 00:38:38;;;;;;;32.92;26.23;;;25.90;99.90;;;;;;5053193;28;20025;-65
2022/09/19 00:41:06;;;;;;;40.65;32.63;;;25.90;99.90;;;;;;5028905;28;20022;-67
2022/09/19 00:43:38;;;;;;;58.97;43.45;;;25.90;99.90;;;;;;5013719;28;20030;-66
2022/09/19 00:46:04;;;;;;;55.33;39.38;;;25.90;99.90;;;;;;5017145;28;20268;-66
2022/09/19 00:48:32;;;;;;;45.25;33.67;;;25.90;99.90;;;;;;5033421;28;20480;-66
2022/09/19 00:51:01;;;;;;;41.28;30.05;;;25.90;99.90;;;;;;5033182;28;20132;-66
2022/09/19 00:53:30;;;;;;;59.45;41.70;;;25.90;99.90;;;;;;5033246;28;20053;-66
2022/09/19 00:55:57;;;;;;;63.85;40.72;;;25.90;99.90;;;;;;5033276;28;20101;-65
2022/09/19 00:58:25;;;;;;;53.85;36.30;;;25.90;99.90;;;;;;5033011;28;20033;-66
2022/09/19 01:00:52;;;;;;;58.90;36.33;;;25.90;99.90;;;;;;5033207;28;20100;-66
2022/09/19 01:03:19;;;;;;;56.40;37.13;;;25.90;99.90;;;;;;5033160;28;20026;-66
2022/09/19 01:06:07;;;;;;;57.80;37.92;;;25.80;99.90;;;;;;5032600;28;20025;-66
2022/09/19 01:08:56;;;;;;;47.60;32.95;;;25.90;99.90;;;;;;5029700;28;20037;-66
2022/09/19 01:11:26;;;;;;;44.33;33.33;;;25.90;99.90;;;;;;5000774;28;20496;-66
2022/09/19 01:14:00;;;;;;;47.28;31.95;;;25.90;99.90;;;;;;5013658;28;20033;-66
2022/09/19 01:16:40;;;;;;;35.42;27.92;;;25.90;99.90;;;;;;5013225;28;20057;-65
2022/09/19 01:19:19;;;;;;;32.75;26.92;;;25.90;99.90;;;;;;5013128;28;20034;-66
2022/09/19 01:21:50;;;;;;;45.45;30.27;;;25.90;99.90;;;;;;5027278;28;20021;-66
2022/09/19 01:24:20;;;;;;;47.22;32.70;;;25.90;99.90;;;;;;5032952;28;20385;-65
2022/09/19 01:26:52;;;;;;;41.40;27.92;;;25.90;99.90;;;;;;5033066;28;20052;-66
2022/09/19 01:29:25;;;;;;;41.45;29.83;;;25.90;99.90;;;;;;5032964;28;20053;-66
2022/09/19 01:31:58;;;;;;;38.53;30.02;;;25.90;99.90;;;;;;5033164;28;20392;-66
2022/09/19 01:34:44;;;;;;;44.33;32.85;;;25.90;99.90;;;;;;5032972;28;20029;-67
2022/09/19 01:37:28;;;;;;;86.53;73.85;;;25.90;99.90;;;;;;5033148;28;20025;-66
2022/09/19 01:39:58;;;;;;;127.55;99.05;;;25.80;99.90;;;;;;5050697;28;20472;-66
2022/09/19 01:42:24;;;;;;;97.07;83.07;;;25.80;99.90;;;;;;5053047;28;20462;-66
2022/09/19 01:44:52;;;;;;;50.22;37.10;;;25.80;99.90;;;;;;5052963;28;20024;-67
2022/09/19 01:47:22;;;;;;;46.78;32.38;;;25.80;99.90;;;;;;5052777;28;20032;-66
2022/09/19 01:49:48;;;;;;;50.55;37.17;;;25.80;99.90;;;;;;5052868;28;20082;-67
2022/09/19 01:52:17;;;;;;;45.83;32.70;;;25.80;99.90;;;;;;5052700;28;20117;-67
2022/09/19 01:54:51;;;;;;;46.88;32.30;;;25.90;99.90;;;;;;5053043;28;20029;-65
2022/09/19 01:57:29;;;;;;;44.67;32.13;;;25.90;99.90;;;;;;5052745;28;20032;-66
2022/09/19 02:00:01;;;;;;;56.78;34.78;;;25.90;99.90;;;;;;5052823;28;20032;-66
2022/09/19 02:02:34;;;;;;;47.85;32.97;;;25.90;99.90;;;;;;5052718;28;20105;-66
2022/09/19 02:05:05;;;;;;;44.22;26.05;;;25.90;99.90;;;;;;5038076;28;20042;-66
2022/09/19 02:07:47;;;;;;;36.90;23.63;;;25.90;99.90;;;;;;5032821;28;20033;-65
2022/09/19 02:10:21;;;;;;;37.42;24.98;;;26.00;99.90;;;;;;5017591;28;20026;-65
2022/09/19 02:12:52;;;;;;;43.47;25.30;;;26.00;99.90;;;;;;5012883;28;20484;-66
2022/09/19 02:15:26;;;;;;;40.00;27.37;;;25.90;99.90;;;;;;5012780;28;20038;-65
2022/09/19 02:17:58;;;;;;;50.55;31.45;;;25.90;99.90;;;;;;5013557;28;20084;-66
2022/09/19 02:20:29;;;;;;;50.15;35.20;;;25.90;99.90;;;;;;5016475;28;20377;-66
2022/09/19 02:23:14;;;;;;;129.43;116.20;;;26.00;99.90;;;;;;5016413;28;20485;-66
2022/09/19 02:25:42;;;;;;;110.32;98.82;;;26.00;99.90;;;;;;5016410;28;20080;-67
2022/09/19 02:28:18;;;;;;;67.53;56.88;;;26.00;99.90;;;;;;5016453;28;20427;-66
2022/09/19 02:30:45;;;;;;;52.55;42.17;;;26.00;99.90;;;;;;5021970;28;20101;-66
2022/09/19 02:33:12;;;;;;;41.17;31.50;;;26.10;99.90;;;;;;5035884;28;20026;-65
2022/09/19 02:35:46;;;;;;;38.08;27.20;;;26.10;99.90;;;;;;5036213;28;20029;-65
2022/09/19 02:38:25;;;;;;;37.42;24.23;;;26.10;99.90;;;;;;5036132;28;20033;-66
2022/09/19 02:41:10;;;;;;;24.52;18.17;;;26.10;99.90;;;;;;5035874;28;20064;-66
2022/09/19 02:43:40;;;;;;;30.67;18.83;;;26.10;99.90;;;;;;5035308;28;20104;-65
2022/09/19 02:46:18;;;;;;;31.75;19.05;;;26.10;99.90;;;;;;5035875;28;20071;-65
2022/09/19 02:48:47;;;;;;;25.80;20.88;;;26.20;99.90;;;;;;5035730;28;20084;-65
2022/09/19 02:51:22;;;;;;;28.42;19.50;;;26.20;99.90;;;;;;5035397;28;20420;-66
2022/09/19 02:53:57;;;;;;;30.33;21.52;;;26.20;99.90;;;;;;5035592;28;20123;-66
2022/09/19 02:56:33;;;;;;;23.90;20.75;;;26.20;99.90;;;;;;5035559;28;20481;-66
2022/09/19 02:59:07;;;;;;;31.48;23.70;;;26.20;99.90;;;;;;5035655;28;20171;-66
2022/09/19 03:01:34;;;;;;;29.70;22.85;;;26.20;99.90;;;;;;5035429;28;20026;-67
2022/09/19 03:04:12;;;;;;;34.13;24.02;;;26.10;99.90;;;;;;5030698;28;20025;-67
2022/09/19 03:06:58;;;;;;;33.20;25.60;;;26.10;99.90;;;;;;5015589;28;20077;-68
2022/09/19 03:09:29;;;;;;;31.58;23.42;;;26.10;99.90;;;;;;5030715;28;20048;-67
2022/09/19 03:12:26;;;;;;;21.15;15.23;;;26.20;99.90;;;;;;5049186;28;20574;-67
2022/09/19 03:14:58;;;;;;;19.83;13.63;;;26.10;99.90;;;;;;5044315;28;20076;-67
2022/09/19 03:17:33;;;;;;;14.25;11.75;;;26.10;99.90;;;;;;5054042;28;20541;-66
2022/09/19 03:19:59;;;;;;;16.95;11.52;;;26.10;99.90;;;;;;5049719;28;20082;-66
2022/09/19 03:22:26;;;;;;;15.55;11.02;;;26.10;99.90;;;;;;5053971;28;20032;-67
2022/09/19 03:24:53;;;;;;;18.20;13.65;;;26.30;99.90;;;;;;5053672;28;20476;-67
2022/09/19 03:27:19;;;;;;;46.60;32.78;;;26.30;99.90;;;;;;5053896;28;20012;-67
2022/09/19 03:29:46;;;;;;;75.80;41.00;;;26.20;99.90;;;;;;5053469;28;20036;-66
2022/09/19 03:32:12;;;;;;;146.20;89.75;;;26.30;99.90;;;;;;5052693;28;20095;-67
2022/09/19 03:34:39;;;;;;;148.32;108.38;;;26.30;99.90;;;;;;5053115;28;20025;-67
2022/09/19 03:37:07;;;;;;;37.20;22.25;;;26.30;99.90;;;;;;5053169;28;20020;-66
2022/09/19 03:39:33;;;;;;;23.70;15.65;;;26.20;99.90;;;;;;5051245;28;20031;-66
2022/09/19 03:42:00;;;;;;;42.78;30.65;;;26.20;99.90;;;;;;5048612;28;20027;-66
2022/09/19 03:44:26;;;;;;;25.00;16.17;;;26.20;99.90;;;;;;5052968;28;20017;-66
2022/09/19 03:46:53;;;;;;;48.15;20.05;;;26.20;99.90;;;;;;5053281;28;20090;-66
2022/09/19 03:49:19;;;;;;;44.90;19.73;;;26.10;99.90;;;;;;5053414;28;20013;-65
2022/09/19 03:51:46;;;;;;;29.20;16.27;;;26.20;99.90;;;;;;5046788;28;20130;-67
2022/09/19 03:54:13;;;;;;;27.58;18.38;;;26.20;99.90;;;;;;5042000;28;20391;-67
2022/09/19 03:56:39;;;;;;;32.85;20.65;;;26.20;99.90;;;;;;5053248;28;20021;-66
2022/09/19 03:59:06;;;;;;;35.67;23.15;;;26.10;99.90;;;;;;5052991;28;20027;-67
2022/09/19 04:01:33;;;;;;;32.35;21.48;;;26.00;99.90;;;;;;5053172;28;20028;-67
2022/09/19 04:03:59;;;;;;;25.90;15.93;;;26.00;99.90;;;;;;5053048;28;20375;-67
2022/09/19 04:06:26;;;;;;;27.85;15.95;;;25.90;99.90;;;;;;5053108;28;20372;-66
2022/09/19 04:08:53;;;;;;;24.00;15.27;;;25.80;99.90;;;;;;5052944;28;20036;-66
2022/09/19 04:11:19;;;;;;;32.00;15.43;;;25.70;99.90;;;;;;5053067;28;20029;-66
2022/09/19 04:13:49;;;;;;;25.30;15.10;;;25.80;99.90;;;;;;5052992;28;20029;-67
2022/09/19 04:16:17;;;;;;;23.05;14.30;;;25.90;99.90;;;;;;5054580;28;20043;-66
2022/09/19 04:18:47;;;;;;;21.67;14.95;;;25.90;99.90;;;;;;5053433;28;20071;-67
2022/09/19 04:21:16;;;;;;;20.05;12.98;;;25.90;99.90;;;;;;5052315;28;20471;-66
2022/09/19 04:23:44;;;;;;;20.02;15.13;;;25.90;99.90;;;;;;5051786;28;20029;-67
2022/09/19 04:26:12;;;;;;;61.80;41.47;;;25.80;99.90;;;;;;5052406;28;20021;-66
2022/09/19 04:28:40;;;;;;;59.25;36.13;;;25.90;99.90;;;;;;5051474;28;20079;-67
2022/09/19 04:31:08;;;;;;;37.55;23.90;;;25.80;99.90;;;;;;5051782;28;20091;-66
2022/09/19 04:33:36;;;;;;;19.63;12.50;;;25.80;99.90;;;;;;5054430;28;20021;-66
2022/09/19 04:36:05;;;;;;;128.52;86.75;;;25.80;99.90;;;;;;5054398;28;20020;-67
2022/09/19 04:38:33;;;;;;;329.90;186.73;;;25.70;99.90;;;;;;5054955;28;20048;-66
2022/09/19 04:41:01;;;;;;;190.07;125.20;;;25.70;99.90;;;;;;5052559;28;20017;-68
2022/09/19 04:43:28;;;;;;;17.05;11.23;;;25.70;99.90;;;;;;5023929;28;20033;-67
2022/09/19 04:45:56;;;;;;;20.00;9.70;;;25.70;99.90;;;;;;5034687;28;20049;-66
2022/09/19 04:48:23;;;;;;;19.85;12.68;;;25.70;99.90;;;;;;5017981;28;20029;-67
2022/09/19 04:50:53;;;;;;;15.65;11.90;;;25.60;99.90;;;;;;5035077;28;20530;-67
2022/09/19 04:53:23;;;;;;;13.02;9.55;;;25.60;99.90;;;;;;5047455;28;20372;-66
2022/09/19 04:55:52;;;;;;;18.15;10.52;;;25.60;99.90;;;;;;5054583;28;20032;-67
2022/09/19 04:58:19;;;;;;;13.13;10.25;;;25.60;99.90;;;;;;5054871;28;20028;-67
2022/09/19 05:00:51;;;;;;;16.58;12.13;;;25.60;99.90;;;;;;5054854;28;20024;-66
2022/09/19 05:03:18;;;;;;;13.32;10.60;;;25.50;99.90;;;;;;5051110;28;20227;-67
2022/09/19 05:05:54;;;;;;;16.00;10.80;;;25.50;99.90;;;;;;5055277;28;20083;-67
2022/09/19 05:08:25;;;;;;;15.20;10.70;;;25.40;99.90;;;;;;5054375;28;20025;-67
2022/09/19 05:10:58;;;;;;;15.77;10.43;;;25.40;99.90;;;;;;5043977;28;20057;-67
2022/09/19 05:13:28;;;;;;;13.95;10.65;;;25.50;99.90;;;;;;5035343;28;20029;-67
2022/09/19 05:15:55;;;;;;;18.38;12.05;;;25.50;99.90;;;;;;5035437;28;20047;-67
2022/09/19 05:18:23;;;;;;;15.77;11.50;;;25.50;99.90;;;;;;5035327;28;20037;-66
2022/09/19 05:20:52;;;;;;;15.73;11.82;;;25.50;99.90;;;;;;5035437;28;20408;-67
2022/09/19 05:23:23;;;;;;;20.15;12.02;;;25.60;99.90;;;;;;5035263;28;20022;-66
2022/09/19 05:25:55;;;;;;;19.30;12.02;;;25.60;99.90;;;;;;5035155;28;20374;-67
2022/09/19 05:28:23;;;;;;;23.25;12.65;;;25.60;99.90;;;;;;5035333;28;20379;-65
2022/09/19 05:30:54;;;;;;;20.00;13.30;;;25.70;99.90;;;;;;5035416;28;20131;-66
2022/09/19 05:33:26;;;;;;;21.02;14.52;;;25.80;99.90;;;;;;5035409;28;20591;-66
2022/09/19 05:35:55;;;;;;;27.02;15.18;;;25.80;99.90;;;;;;5035755;28;20029;-66
2022/09/19 05:38:23;;;;;;;17.42;13.95;;;25.80;99.90;;;;;;5035135;28;20030;-68
2022/09/19 05:40:54;;;;;;;25.38;15.68;;;25.80;99.90;;;;;;5035344;28;20383;-68
2022/09/19 05:43:21;;;;;;;25.58;17.02;;;25.80;99.90;;;;;;5049394;28;20028;-66
2022/09/19 05:45:50;;;;;;;21.67;16.35;;;25.80;99.90;;;;;;5054041;28;20036;-67
2022/09/19 05:48:16;;;;;;;20.35;15.30;;;25.80;99.90;;;;;;5054563;28;20399;-66
2022/09/19 05:50:44;;;;;;;20.13;14.95;;;25.80;99.90;;;;;;5054548;28;20052;-68
2022/09/19 05:55:40;;;;;;;14.95;13.35;;;25.80;99.90;;;;;;5050806;28;20071;-68
2022/09/19 05:58:08;;;;;;;21.30;14.52;;;25.70;99.90;;;;;;5055649;28;20463;-68
2022/09/19 06:00:36;;;;;;;17.30;13.43;;;25.70;99.90;;;;;;5058680;28;20028;-67
2022/09/19 06:03:04;;;;;;;13.55;11.65;;;25.80;99.90;;;;;;5053964;28;20071;-67
2022/09/19 06:05:37;;;;;;;15.10;10.93;;;25.80;99.90;;;;;;5056676;28;20020;-67
2022/09/19 06:08:04;;;;;;;15.75;10.73;;;25.80;99.90;;;;;;5053825;28;20033;-67
2022/09/19 06:10:35;;;;;;;16.50;12.02;;;25.80;99.90;;;;;;5058399;28;20032;-65
2022/09/19 06:13:01;;;;;;;18.50;13.27;;;25.80;99.90;;;;;;5050672;28;20032;-67
2022/09/19 06:15:28;;;;;;;19.35;15.15;;;25.80;99.90;;;;;;5055705;28;20369;-65
2022/09/19 06:17:56;;;;;;;20.33;15.73;;;25.70;99.90;;;;;;5057647;28;20447;-66
2022/09/19 06:20:22;;;;;;;17.27;14.20;;;25.70;99.90;;;;;;5052777;28;20017;-65
2022/09/19 06:22:50;;;;;;;19.40;15.90;;;25.70;99.90;;;;;;5057859;28;20020;-66
2022/09/19 06:25:16;;;;;;;17.80;13.40;;;25.80;99.90;;;;;;5058090;28;20036;-73
2022/09/19 06:27:44;;;;;;;15.07;12.60;;;25.80;99.90;;;;;;5040249;28;20251;-74
2022/09/19 06:30:11;;;;;;;16.75;13.20;;;25.80;99.90;;;;;;5055252;28;20059;-71
2022/09/19 06:32:38;;;;;;;15.65;12.90;;;25.90;99.90;;;;;;5055288;28;20020;-65
2022/09/19 06:35:06;;;;;;;18.73;13.70;;;25.90;99.90;;;;;;5042574;28;20025;-69
2022/09/19 06:37:32;;;;;;;17.70;13.50;;;26.00;99.90;;;;;;5051194;28;20032;-68
2022/09/19 06:39:58;;;;;;;19.40;12.77;;;26.00;99.90;;;;;;5054879;28;20487;-68
2022/09/19 06:42:27;;;;;;;15.35;12.10;;;25.90;99.90;;;;;;5054934;28;20021;-67
2022/09/19 06:44:53;;;;;;;17.33;12.45;;;25.90;99.90;;;;;;5054797;28;20064;-67
2022/09/19 06:47:19;;;;;;;20.55;13.18;;;25.90;99.90;;;;;;5054513;28;20090;-68
2022/09/19 06:49:46;;;;;;;33.10;19.20;;;25.90;99.90;;;;;;5054449;28;20039;-67
2022/09/19 06:52:13;;;;;;;70.50;31.83;;;26.00;99.90;;;;;;5054488;28;20021;-69
2022/09/19 06:54:39;;;;;;;80.60;34.47;;;26.00;99.90;;;;;;5054126;28;20055;-68
2022/09/19 06:57:07;;;;;;;82.97;36.65;;;26.10;99.90;;;;;;5054388;28;20060;-67
2022/09/19 06:59:33;;;;;;;333.80;200.27;;;26.10;99.90;;;;;;5054878;28;20100;-66
2022/09/19 07:02:00;;;;;;;242.50;88.05;;;26.10;99.90;;;;;;5053812;28;20021;-66
2022/09/19 07:04:26;;;;;;;236.90;87.40;;;26.20;99.90;;;;;;5053672;28;20018;-66
2022/09/19 07:06:56;;;;;;;144.73;57.05;;;26.10;99.90;;;;;;5053997;28;20019;-67
2022/09/19 07:09:24;;;;;;;156.95;90.00;;;26.10;99.90;;;;;;5054227;28;20081;-65
2022/09/19 07:11:55;;;;;;;114.43;76.00;;;26.10;99.90;;;;;;5054101;28;20024;-65
2022/09/19 07:14:22;;;;;;;177.20;127.82;;;26.10;99.90;;;;;;5046075;28;20017;-66
2022/09/19 07:16:49;;;;;;;112.57;84.30;;;26.20;99.90;;;;;;5053189;28;20040;-67
2022/09/19 07:19:16;;;;;;;76.50;57.65;;;26.10;99.90;;;;;;5054925;28;20133;-69
2022/09/19 07:21:44;;;;;;;61.38;48.58;;;26.20;99.90;;;;;;5054701;28;20036;-68
2022/09/19 07:24:11;;;;;;;52.17;42.33;;;26.20;99.90;;;;;;5054755;28;20025;-69
2022/09/19 07:26:38;;;;;;;51.53;41.38;;;26.10;99.90;;;;;;5054662;28;20024;-72
2022/09/19 07:29:04;;;;;;;54.10;44.80;;;26.20;99.90;;;;;;5054618;28;20028;-68
2022/09/19 07:31:31;;;;;;;43.58;35.60;;;26.20;99.90;;;;;;5054672;28;20032;-68
2022/09/19 07:33:57;;;;;;;40.75;27.65;;;26.10;99.90;;;;;;5054628;28;20100;-70
2022/09/19 07:36:24;;;;;;;29.02;22.95;;;26.20;99.90;;;;;;5054513;28;20021;-69
2022/09/19 07:38:50;;;;;;;29.58;21.35;;;26.10;99.90;;;;;;5054657;28;20108;-69
2022/09/19 07:41:18;;;;;;;26.27;20.45;;;26.10;99.90;;;;;;5054523;28;20028;-69
2022/09/19 07:43:48;;;;;;;18.20;15.27;;;26.20;99.90;;;;;;5054486;28;20151;-71
2022/09/19 07:46:17;;;;;;;22.83;17.42;;;26.10;99.90;;;;;;5036914;28;20383;-69
2022/09/19 07:48:47;;;;;;;19.73;14.50;;;26.10;99.90;;;;;;5054372;28;20025;-69
2022/09/19 07:51:14;;;;;;;16.73;14.52;;;26.10;99.90;;;;;;5054255;28;20045;-69
2022/09/19 07:53:40;;;;;;;21.20;14.60;;;26.10;99.90;;;;;;5054468;28;20529;-69
2022/09/19 07:56:10;;;;;;;23.85;16.02;;;26.10;99.90;;;;;;5054403;28;20017;-69
2022/09/19 07:58:36;;;;;;;19.20;15.32;;;26.10;99.90;;;;;;5054083;28;20025;-68
2022/09/19 08:01:03;;;;;;;20.38;15.00;;;26.10;99.90;;;;;;5054315;28;20025;-70
2022/09/19 08:03:29;;;;;;;20.40;14.63;;;26.10;99.90;;;;;;5054313;28;20020;-69
2022/09/19 08:06:00;;;;;;;17.55;13.00;;;26.00;99.90;;;;;;5053981;28;20029;-69
2022/09/19 08:08:27;;;;;;;25.60;15.68;;;26.00;99.90;;;;;;5054026;28;20041;-69
2022/09/19 08:11:00;;;;;;;20.77;14.63;;;26.00;99.90;;;;;;5053405;28;20420;-72
2022/09/19 08:13:29;;;;;;;20.90;13.93;;;26.00;99.90;;;;;;5054069;28;20025;-70
2022/09/19 08:15:55;;;;;;;20.95;15.68;;;26.00;99.90;;;;;;5052827;28;20028;-70
2022/09/19 08:18:23;;;;;;;25.05;14.98;;;26.10;99.90;;;;;;5053767;28;20017;-69
2022/09/19 08:20:50;;;;;;;26.05;20.05;;;26.10;99.90;;;;;;5053244;28;20029;-66
2022/09/19 08:23:18;;;;;;;27.15;19.30;;;26.10;99.90;;;;;;5026667;28;20049;-68
2022/09/19 08:25:46;;;;;;;23.00;18.00;;;26.10;99.90;;;;;;5034334;28;20040;-68
2022/09/19 08:28:14;;;;;;;27.23;19.13;;;26.10;99.90;;;;;;5033871;28;20427;-68
2022/09/19 08:30:42;;;;;;;26.25;16.75;;;26.10;99.90;;;;;;5033318;28;20119;-67
2022/09/19 08:33:10;;;;;;;25.77;17.88;;;26.10;99.90;;;;;;5033388;28;20036;-67
2022/09/19 08:35:39;;;;;;;27.13;19.15;;;26.00;99.90;;;;;;5033628;28;20029;-67
2022/09/19 08:38:08;;;;;;;45.20;36.63;;;26.10;99.90;;;;;;5033506;28;20029;-68
2022/09/19 08:40:36;;;;;;;28.67;19.77;;;26.10;99.90;;;;;;5031129;28;20037;-68
2022/09/19 08:43:05;;;;;;;43.08;27.98;;;26.00;99.90;;;;;;5022559;28;20033;-69
2022/09/19 08:45:36;;;;;;;36.90;24.13;;;26.00;99.90;;;;;;5014028;28;20076;-68
2022/09/19 08:48:09;;;;;;;33.70;22.88;;;26.00;99.90;;;;;;5013744;28;20416;-68
2022/09/19 08:50:39;;;;;;;37.80;26.58;;;26.00;99.90;;;;;;5013853;28;20053;-68
2022/09/19 08:53:13;;;;;;;70.75;44.08;;;26.00;99.90;;;;;;5014028;28;20388;-69
2022/09/19 08:55:41;;;;;;;30.90;22.45;;;26.00;99.90;;;;;;5013866;28;20105;-69
2022/09/19 08:58:16;;;;;;;26.60;20.13;;;26.00;99.90;;;;;;5013732;28;20022;-71
2022/09/19 09:00:45;;;;;;;26.13;16.08;;;26.10;99.90;;;;;;5013779;28;20030;-68
2022/09/19 09:03:16;;;;;;;21.42;16.15;;;26.10;99.90;;;;;;5013710;28;20037;-72
2022/09/19 09:05:44;;;;;;;165.48;115.03;;;26.00;99.90;;;;;;5016605;28;20026;-69
2022/09/19 09:08:15;;;;;;;61.08;40.40;;;26.00;99.90;;;;;;5022710;28;20109;-70
2022/09/19 09:11:03;;;;;;;35.45;21.15;;;26.00;99.90;;;;;;5041083;28;20072;-70
2022/09/19 09:13:37;;;;;;;28.27;18.95;;;26.00;99.90;;;;;;5047845;28;20021;-69
2022/09/19 09:16:04;;;;;;;32.58;18.35;;;26.00;99.90;;;;;;5052255;28;20017;-69
2022/09/19 09:18:32;;;;;;;35.63;19.52;;;26.00;99.90;;;;;;5051437;28;20021;-69
2022/09/19 09:21:01;;;;;;;28.13;18.20;;;26.00;99.90;;;;;;5051879;28;20049;-68
2022/09/19 09:23:32;;;;;;;22.73;16.60;;;26.00;99.90;;;;;;5052334;28;20021;-70
2022/09/19 09:26:13;;;;;;;24.13;17.73;;;26.00;99.90;;;;;;5052188;28;20553;-69
2022/09/19 09:28:42;;;;;;;23.60;16.95;;;26.00;99.90;;;;;;5051755;28;20013;-68
2022/09/19 09:31:19;;;;;;;27.35;17.52;;;26.00;99.90;;;;;;5056420;28;20100;-69
2022/09/19 09:33:54;;;;;;;25.73;17.40;;;26.10;99.90;;;;;;5053487;28;20151;-69
2022/09/19 09:36:26;;;;;;;24.42;17.58;;;26.10;99.90;;;;;;5049781;28;20025;-70
2022/09/19 09:38:58;;;;;;;27.42;18.52;;;26.10;99.90;;;;;;5050162;28;20053;-69
2022/09/19 09:44:04;;;;;;;29.52;18.15;;;26.10;99.90;;;;;;5039772;28;20022;-69
2022/09/19 09:46:56;;;;;;;31.63;20.80;;;26.10;99.90;;;;;;5054767;28;20021;-68
2022/09/19 09:49:27;;;;;;;32.22;20.35;;;26.10;99.90;;;;;;5050602;28;20106;-69
2022/09/19 09:52:05;;;;;;;26.00;18.90;;;26.10;99.90;;;;;;5055578;28;20053;-68
2022/09/19 09:57:15;;;;;;;30.45;20.75;;;26.00;99.90;;;;;;5049426;28;20029;-69
2022/09/19 10:05:30;;;;;;;313.85;256.17;;;26.10;99.90;;;;;;5055096;28;20024;-68
2022/09/19 10:08:28;;;;;;;107.75;73.30;;;26.10;99.90;;;;;;5044961;28;20086;-66
2022/09/19 10:11:04;;;;;;;45.95;33.13;;;26.10;99.90;;;;;;5051387;28;20090;-68
2022/09/19 10:13:38;;;;;;;60.65;41.28;;;26.00;99.90;;;;;;5052808;28;20025;-70
2022/09/19 10:16:06;;;;;;;108.32;78.00;;;26.00;99.90;;;;;;5051089;28;20021;-67
2022/09/19 10:18:43;;;;;;;44.97;31.85;;;26.00;99.90;;;;;;5055326;28;20028;-66
2022/09/19 10:21:10;;;;;;;38.22;25.17;;;26.00;99.90;;;;;;5052689;28;20024;-71
2022/09/19 10:23:37;;;;;;;39.35;27.20;;;25.90;99.90;;;;;;5055695;28;20032;-66
2022/09/19 10:26:14;;;;;;;159.52;116.15;;;25.90;99.90;;;;;;5055688;28;20412;-66
2022/09/19 10:28:49;;;;;;;98.32;66.30;;;26.00;99.90;;;;;;5054857;28;20017;-66
2022/09/19 10:31:23;;;;;;;74.38;54.35;;;26.00;99.90;;;;;;5055137;28;20021;-66
2022/09/19 10:33:50;;;;;;;168.52;125.95;;;25.90;99.90;;;;;;5051955;28;20439;-66
2022/09/19 10:36:20;;;;;;;79.20;58.65;;;25.90;99.90;;;;;;5055062;28;20438;-66
2022/09/19 10:38:54;;;;;;;44.97;27.42;;;25.90;99.90;;;;;;5053981;28;20084;-65
2022/09/19 10:41:22;;;;;;;44.58;25.20;;;25.80;99.90;;;;;;5055312;28;20120;-66
2022/09/19 10:43:55;;;;;;;41.53;24.67;;;25.90;99.90;;;;;;5055131;28;20031;-65
2022/09/19 10:46:31;;;;;;;36.97;21.13;;;25.90;99.90;;;;;;5049721;28;20079;-65
2022/09/19 10:48:59;;;;;;;44.88;22.48;;;25.90;99.90;;;;;;5054576;28;20103;-66
2022/09/19 10:51:35;;;;;;;36.47;22.38;;;25.90;99.90;;;;;;5029507;28;20054;-66
2022/09/19 10:54:11;;;;;;;35.70;20.27;;;25.90;99.90;;;;;;5045196;28;20368;-65
2022/09/19 10:56:41;;;;;;;35.78;21.08;;;26.00;99.90;;;;;;5054322;28;20049;-66
2022/09/19 10:59:11;;;;;;;41.60;22.20;;;25.90;99.90;;;;;;5054367;28;20463;-66
2022/09/19 11:01:39;;;;;;;35.33;22.40;;;25.90;99.90;;;;;;5054859;28;20088;-66
2022/09/19 11:04:08;;;;;;;36.38;22.05;;;25.90;99.90;;;;;;5054898;28;20328;-66
2022/09/19 11:06:34;;;;;;;33.97;21.48;;;25.80;99.90;;;;;;5054772;28;20028;-67
2022/09/19 11:09:23;;;;;;;31.67;20.52;;;25.80;99.90;;;;;;5049560;28;20035;-64
2022/09/19 11:11:50;;;;;;;33.72;21.50;;;25.80;99.90;;;;;;5051807;28;20028;-64
2022/09/19 11:14:22;;;;;;;34.08;20.98;;;25.80;99.90;;;;;;5054831;28;20025;-65
2022/09/19 11:17:02;;;;;;;32.65;22.08;;;25.80;99.90;;;;;;5054928;28;20067;-64
2022/09/19 11:19:39;;;;;;;38.38;24.13;;;25.80;99.90;;;;;;5050987;28;20032;-64
2022/09/19 11:22:28;;;;;;;39.53;23.23;;;25.80;99.90;;;;;;5044354;28;20033;-63
2022/09/19 11:25:00;;;;;;;39.22;25.40;;;25.80;99.90;;;;;;5056662;28;20044;-66
2022/09/19 11:27:28;;;;;;;36.03;25.75;;;25.80;99.90;;;;;;5051817;28;20028;-65
2022/09/19 11:29:59;;;;;;;40.85;25.58;;;25.80;99.90;;;;;;5054532;28;20086;-64
2022/09/19 11:32:28;;;;;;;130.15;103.95;;;25.80;99.90;;;;;;5050260;28;20035;-64
2022/09/19 11:35:02;;;;;;;117.10;78.95;;;25.90;99.90;;;;;;5054618;28;20031;-64
2022/09/19 11:37:41;;;;;;;40.97;30.10;;;25.90;99.90;;;;;;5045569;28;20022;-67
2022/09/19 11:40:13;;;;;;;96.03;68.55;;;25.90;99.90;;;;;;5022232;28;20037;-67
2022/09/19 11:43:19;;;;;;;71.60;53.08;;;25.90;99.90;;;;;;5046833;28;20021;-67
2022/09/19 11:45:50;;;;;;;81.43;60.38;;;25.80;99.90;;;;;;4988578;28;20403;-67
2022/09/19 11:48:31;;;;;;;77.72;55.50;;;25.80;99.90;;;;;;5054041;28;20021;-67
2022/09/19 11:51:00;;;;;;;76.32;58.47;;;25.90;99.90;;;;;;5051607;28;20057;-67
2022/09/19 11:53:32;;;;;;;62.25;45.10;;;25.80;99.90;;;;;;5055353;28;20092;-67
2022/09/19 11:56:01;;;;;;;95.53;68.07;;;25.90;99.90;;;;;;5055487;28;20056;-68
2022/09/19 11:58:33;;;;;;;71.95;53.53;;;26.00;99.90;;;;;;5029940;28;20222;-65
2022/09/19 12:01:03;;;;;;;54.63;39.17;;;26.00;99.90;;;;;;5030083;28;20032;-66
2022/09/19 12:03:39;;;;;;;78.32;60.53;;;26.00;99.90;;;;;;5033677;28;20025;-67
2022/09/19 12:06:14;;;;;;;99.13;76.03;;;26.00;99.90;;;;;;5034466;28;20038;-67
2022/09/19 12:08:52;;;;;;;85.18;62.13;;;26.00;99.90;;;;;;5034635;28;20167;-65
2022/09/19 12:11:42;;;;;;;83.95;65.30;;;25.90;99.90;;;;;;5034178;28;20026;-68
2022/09/19 12:14:20;;;;;;;114.25;83.85;;;25.90;99.90;;;;;;4996874;28;20033;-67
2022/09/19 12:16:55;;;;;;;135.55;102.80;;;25.90;99.90;;;;;;5034391;28;20025;-68
2022/09/19 12:19:52;;;;;;;107.80;85.63;;;26.00;99.90;;;;;;5032086;28;20029;-67
2022/09/19 12:22:34;;;;;;;136.30;106.85;;;25.90;99.90;;;;;;5014802;28;20057;-71
2022/09/19 12:25:13;;;;;;;146.43;112.15;;;25.90;99.90;;;;;;5028954;28;20049;-68
2022/09/19 12:27:41;;;;;;;97.57;76.90;;;26.00;99.90;;;;;;5033877;28;20049;-66
2022/09/19 12:30:11;;;;;;;100.60;79.47;;;26.00;99.90;;;;;;5032454;28;20475;-65
2022/09/19 12:32:46;;;;;;;58.55;42.72;;;26.00;99.90;;;;;;5027158;28;20104;-66
2022/09/19 12:35:18;;;;;;;1016.28;687.40;;;25.90;99.90;;;;;;5029909;28;20052;-68
2022/09/19 12:37:54;;;;;;;829.55;567.15;;;25.90;99.90;;;;;;5028413;28;20395;-67
2022/09/19 12:40:28;;;;;;;305.95;172.00;;;25.90;99.90;;;;;;5032132;28;20460;-64
2022/09/19 12:43:17;;;;;;;41.45;27.10;;;25.90;99.90;;;;;;5049797;28;20032;-65
2022/09/19 12:45:54;;;;;;;37.58;24.65;;;25.90;99.90;;;;;;5049196;28;20126;-63
2022/09/19 12:48:36;;;;;;;38.33;26.10;;;25.90;99.90;;;;;;5049529;28;20013;-64
2022/09/19 12:51:08;;;;;;;34.75;25.55;;;25.90;99.90;;;;;;5048825;28;20076;-65
2022/09/19 12:53:38;;;;;;;54.15;37.83;;;25.90;99.90;;;;;;5046635;28;20394;-65
2022/09/19 12:56:19;;;;;;;40.28;31.10;;;25.90;99.90;;;;;;5050643;28;20021;-64
2022/09/19 12:58:49;;;;;;;63.25;47.17;;;25.80;99.90;;;;;;5049217;28;20538;-65
2022/09/19 13:01:20;;;;;;;63.70;45.20;;;25.90;99.90;;;;;;5045504;28;20029;-63